createdAt,value
2022-11-18T00:01:36.862Z,94.53
2022-11-18T00:04:39.222Z,93.55
2022-11-18T00:07:41.387Z,94.15
2022-11-18T00:10:43.545Z,92.87
2022-11-18T00:14:04.458Z,92.80
2022-11-18T00:17:06.811Z,92.59
2022-11-18T00:20:09.207Z,92.73
2022-11-18T00:23:12.143Z,93.27
2022-11-18T00:26:14.631Z,92.58
2022-11-18T00:29:17.287Z,93.06
2022-11-18T00:32:19.542Z,93.07
2022-11-18T00:35:21.648Z,92.72
2022-11-18T00:38:24.449Z,93.06
2022-11-18T00:41:46.483Z,92.81
2022-11-18T00:44:48.605Z,92.71
2022-11-18T00:47:50.691Z,93.22
2022-11-18T00:50:55.626Z,92.98
2022-11-18T00:53:57.730Z,92.63
2022-11-18T00:57:00.001Z,94.26
2022-11-18T01:00:02.054Z,95.03
2022-11-18T01:03:04.270Z,94.58
2022-11-18T01:06:06.398Z,94.83
2022-11-18T01:09:08.594Z,93.94
2022-11-18T01:12:54.066Z,93.06
2022-11-18T01:15:58.010Z,95.62
2022-11-18T01:19:00.065Z,94.53
2022-11-18T01:22:03.381Z,94.49
2022-11-18T01:25:05.813Z,95.12
2022-11-18T01:28:07.882Z,93.40
2022-11-18T01:31:12.742Z,92.78
2022-11-18T01:34:14.784Z,92.98
2022-11-18T01:37:16.904Z,93.57
2022-11-18T01:40:19.062Z,93.30
2022-11-18T01:43:21.797Z,94.15
2022-11-18T01:46:26.062Z,94.63
2022-11-18T01:49:28.102Z,94.94
2022-11-18T01:52:30.283Z,96.42
2022-11-18T01:55:35.044Z,95.09
2022-11-18T01:58:41.366Z,96.25
2022-11-18T02:01:43.447Z,95.11
2022-11-18T02:04:48.574Z,97.78
2022-11-18T02:07:50.638Z,96.02
2022-11-18T02:10:52.706Z,96.59
2022-11-18T02:13:54.754Z,97.27
2022-11-18T02:17:27.603Z,95.83
2022-11-18T02:20:39.336Z,97.05
2022-11-18T02:24:21.007Z,95.84
2022-11-18T02:27:49.313Z,96.90
2022-11-18T02:31:00.972Z,96.25
2022-11-18T02:34:34.213Z,97.55
2022-11-18T02:37:54.632Z,96.60
2022-11-18T02:41:04.007Z,96.10
2022-11-18T02:44:12.423Z,96.98
2022-11-18T02:47:14.929Z,96.13
2022-11-18T02:50:21.331Z,96.68
2022-11-18T02:53:23.411Z,97.31
2022-11-18T02:56:25.686Z,97.33
2022-11-18T02:59:28.977Z,97.55
2022-11-18T03:02:44.701Z,98.04
2022-11-18T03:06:22.266Z,98.07
2022-11-18T03:09:30.021Z,99.08
2022-11-18T03:12:40.831Z,98.41
2022-11-18T03:16:03.968Z,99.06
2022-11-18T03:19:13.766Z,99.11
2022-11-18T03:22:44.771Z,100.00
2022-11-18T03:26:16.247Z,100.00
2022-11-18T03:29:47.115Z,99.28
2022-11-18T03:33:04.783Z,100.00
2022-11-18T03:36:08.345Z,100.00
2022-11-18T03:39:10.745Z,99.31
2022-11-18T03:42:41.660Z,99.42
2022-11-18T03:45:49.575Z,100.00
2022-11-18T03:48:54.392Z,99.77
2022-11-18T03:52:00.903Z,99.93
2022-11-18T03:55:07.991Z,100.00
2022-11-18T03:58:51.095Z,99.84
2022-11-18T04:02:00.136Z,100.00
2022-11-18T04:05:03.902Z,99.49
2022-11-18T04:08:15.831Z,99.65
2022-11-18T04:11:41.121Z,99.78
2022-11-18T04:14:44.778Z,99.71
2022-11-18T04:17:46.873Z,99.48
2022-11-18T04:20:48.932Z,99.50
2022-11-18T04:23:56.019Z,99.75
2022-11-18T04:26:58.097Z,100.00
2022-11-18T04:30:00.136Z,100.00
2022-11-18T04:33:07.226Z,100.00
2022-11-18T04:36:09.670Z,99.81
2022-11-18T04:39:11.838Z,100.00
2022-11-18T04:42:13.906Z,100.00
2022-11-18T04:45:16.042Z,100.00
2022-11-18T04:48:19.233Z,100.00
2022-11-18T04:51:21.296Z,100.00
2022-11-18T04:54:23.873Z,100.00
2022-11-18T04:57:25.943Z,100.00
2022-11-18T05:00:28.085Z,100.00
2022-11-18T05:03:30.211Z,99.47
2022-11-18T05:06:32.742Z,99.69
2022-11-18T05:09:35.038Z,99.58
2022-11-18T05:12:49.644Z,99.31
2022-11-18T05:15:51.814Z,99.34
2022-11-18T05:18:53.984Z,99.45
2022-11-18T05:21:56.134Z,99.52
2022-11-18T05:24:58.234Z,100.00
2022-11-18T05:28:00.385Z,100.00
2022-11-18T05:31:13.987Z,100.00
2022-11-18T05:34:16.289Z,100.00
2022-11-18T05:37:18.404Z,100.00
2022-11-18T05:40:20.475Z,100.00
2022-11-18T05:43:22.543Z,100.00
2022-11-18T05:46:24.874Z,100.00
2022-11-18T05:49:26.923Z,100.00
2022-11-18T05:52:29.051Z,100.00
2022-11-18T05:55:42.379Z,100.00
2022-11-18T05:58:44.580Z,100.00
2022-11-18T06:01:55.455Z,100.00
2022-11-18T06:04:59.861Z,99.77
2022-11-18T06:08:01.895Z,98.66
2022-11-18T06:11:03.974Z,98.41
2022-11-18T06:14:14.124Z,99.68
2022-11-18T06:17:22.482Z,98.89
2022-11-18T06:20:24.610Z,97.79
2022-11-18T06:23:28.400Z,97.79
2022-11-18T06:26:30.494Z,96.99
2022-11-18T06:29:32.641Z,98.64
2022-11-18T06:32:34.734Z,99.35
2022-11-18T06:35:36.858Z,97.31
2022-11-18T06:38:39.113Z,98.30
2022-11-18T06:41:41.269Z,97.67
2022-11-18T06:44:43.368Z,97.07
2022-11-18T06:47:45.515Z,96.87
2022-11-18T06:50:47.587Z,97.04
2022-11-18T06:53:50.230Z,97.19
2022-11-18T06:56:52.393Z,96.96
2022-11-18T06:59:59.030Z,95.87
2022-11-18T07:03:02.999Z,95.51
2022-11-18T07:06:06.030Z,95.94
2022-11-18T07:09:08.303Z,95.99
2022-11-18T07:12:10.471Z,95.32
2022-11-18T07:15:12.590Z,96.22
2022-11-18T07:18:14.670Z,95.41
2022-11-18T07:21:21.987Z,94.92
2022-11-18T07:24:24.159Z,94.66
2022-11-18T07:27:26.239Z,94.89
2022-11-18T07:30:28.456Z,95.04
2022-11-18T07:33:31.452Z,94.21
2022-11-18T07:36:35.806Z,95.27
2022-11-18T07:39:38.358Z,94.85
2022-11-18T07:42:45.471Z,94.25
2022-11-18T07:45:59.575Z,93.90
2022-11-18T07:49:03.258Z,94.64
2022-11-18T07:52:15.470Z,93.66
2022-11-18T07:55:17.620Z,92.90
2022-11-18T07:58:19.686Z,92.82
2022-11-18T08:01:24.192Z,93.01
2022-11-18T08:04:26.288Z,93.58
2022-11-18T08:07:29.052Z,94.20
2022-11-18T08:10:31.343Z,93.93
2022-11-18T08:13:33.685Z,94.02
2022-11-18T08:16:35.743Z,93.54
2022-11-18T08:19:37.782Z,93.68
2022-11-18T08:22:39.926Z,93.53
2022-11-18T08:25:43.098Z,92.64
2022-11-18T08:28:45.405Z,92.91
2022-11-18T08:31:47.557Z,92.66
2022-11-18T08:34:51.133Z,91.85
2022-11-18T08:37:53.207Z,92.39
2022-11-18T08:40:55.259Z,92.77
2022-11-18T08:43:57.333Z,91.36
2022-11-18T08:46:59.430Z,91.22
2022-11-18T08:50:01.950Z,91.53
2022-11-18T08:53:04.002Z,91.11
2022-11-18T08:56:06.316Z,91.21
2022-11-18T08:59:08.976Z,91.59
2022-11-18T09:02:22.292Z,91.52
2022-11-18T09:05:24.337Z,92.00
2022-11-18T09:08:26.785Z,91.11
2022-11-18T09:11:28.886Z,90.47
2022-11-18T09:17:53.382Z,90.63
2022-11-18T09:21:04.308Z,90.42
2022-11-18T09:24:07.162Z,90.50
2022-11-18T09:27:15.204Z,90.09
2022-11-18T09:30:18.937Z,89.81
2022-11-18T09:33:21.786Z,89.74
2022-11-18T09:36:24.908Z,89.70
2022-11-18T09:39:26.975Z,89.52
2022-11-18T09:42:51.127Z,89.30
2022-11-18T09:45:58.529Z,89.56
2022-11-18T09:49:13.092Z,90.60
2022-11-18T09:52:23.865Z,90.57
2022-11-18T09:55:25.891Z,90.09
2022-11-18T09:58:34.333Z,90.01
2022-11-18T10:01:37.061Z,89.08
2022-11-18T10:04:39.232Z,89.76
2022-11-18T10:07:59.129Z,88.74
2022-11-18T10:11:08.296Z,90.41
2022-11-18T10:14:42.501Z,90.22
2022-11-18T10:17:51.376Z,90.25
2022-11-18T10:21:24.071Z,90.04
2022-11-18T10:24:30.577Z,89.31
2022-11-18T10:27:40.318Z,89.55
2022-11-18T10:30:42.393Z,88.59
2022-11-18T10:33:44.502Z,87.86
2022-11-18T10:37:14.391Z,87.34
2022-11-18T10:40:26.127Z,86.22
2022-11-18T10:43:54.990Z,84.71
2022-11-18T10:47:15.362Z,84.71
2022-11-18T10:50:28.579Z,84.93
2022-11-18T10:53:33.224Z,84.24
2022-11-18T10:57:04.957Z,84.07
2022-11-18T11:00:33.221Z,84.49
2022-11-18T11:03:38.780Z,85.49
2022-11-18T11:06:40.965Z,85.84
2022-11-18T11:09:43.561Z,84.88
2022-11-18T11:13:09.109Z,83.43
2022-11-18T11:16:11.286Z,84.20
2022-11-18T11:19:13.499Z,83.35
2022-11-18T11:22:15.696Z,82.41
2022-11-18T11:25:28.936Z,81.95
2022-11-18T11:29:05.984Z,82.03
2022-11-18T11:32:41.124Z,82.69
2022-11-18T11:36:22.492Z,82.43
2022-11-18T11:40:20.328Z,82.72
2022-11-18T11:43:38.090Z,83.53
2022-11-18T11:47:32.677Z,83.05
2022-11-18T11:51:03.369Z,82.66
2022-11-18T11:54:56.312Z,81.34
2022-11-18T11:58:23.296Z,80.95
2022-11-18T12:01:42.192Z,80.70
2022-11-18T12:04:52.475Z,80.70
2022-11-18T12:07:59.975Z,79.87
2022-11-18T12:11:21.745Z,78.99
2022-11-18T12:14:53.534Z,80.17
2022-11-18T12:18:33.437Z,79.14
2022-11-18T12:21:47.385Z,78.65
2022-11-18T12:24:49.614Z,79.32
2022-11-18T12:27:59.143Z,79.54
2022-11-18T12:31:19.663Z,78.51
2022-11-18T12:34:43.062Z,77.05
2022-11-18T12:37:57.877Z,78.00
2022-11-18T12:41:19.889Z,75.39
2022-11-18T12:44:26.502Z,74.00
2022-11-18T12:47:40.593Z,74.87
2022-11-18T12:51:15.489Z,75.78
2022-11-18T12:54:32.431Z,77.04
2022-11-18T12:57:34.641Z,76.89
2022-11-18T13:00:52.589Z,77.05
2022-11-18T13:04:12.471Z,77.13
2022-11-18T13:07:34.574Z,78.32
2022-11-18T13:10:50.351Z,78.01
2022-11-18T13:14:15.319Z,78.42
2022-11-18T13:17:54.735Z,78.81
2022-11-18T13:20:59.114Z,79.08
2022-11-18T13:24:01.320Z,78.24
2022-11-18T13:27:03.398Z,78.48
2022-11-18T13:30:11.150Z,78.93
2022-11-18T13:33:13.372Z,77.92
2022-11-18T13:36:20.395Z,77.96
2022-11-18T13:39:23.284Z,76.89
2022-11-18T13:42:30.400Z,75.66
2022-11-18T13:45:32.510Z,75.19
2022-11-18T13:48:34.617Z,75.22
2022-11-18T13:51:38.676Z,74.83
2022-11-18T13:54:40.862Z,73.90
2022-11-18T13:58:07.544Z,75.03
2022-11-18T14:01:19.597Z,73.94
2022-11-18T14:04:27.569Z,74.03
2022-11-18T14:07:33.068Z,74.34
2022-11-18T14:10:44.623Z,74.16
2022-11-18T14:13:52.213Z,74.80
2022-11-18T14:16:54.327Z,74.55
2022-11-18T14:19:58.186Z,73.90
2022-11-18T14:23:01.433Z,73.51
2022-11-18T14:26:05.614Z,72.20
2022-11-18T14:29:22.926Z,72.78
2022-11-18T14:32:28.030Z,73.45
2022-11-18T14:35:33.524Z,72.93
2022-11-18T14:39:11.850Z,73.77
2022-11-18T14:42:12.915Z,74.29
2022-11-18T14:45:15.118Z,74.56
2022-11-18T14:48:19.793Z,74.41
2022-11-18T14:51:21.928Z,73.91
2022-11-18T14:54:27.626Z,74.12
2022-11-18T14:57:30.168Z,73.98
2022-11-18T15:00:32.652Z,73.10
2022-11-18T15:03:34.889Z,72.72
2022-11-18T15:06:37.180Z,73.10
2022-11-18T15:09:39.274Z,73.02
2022-11-18T15:12:41.361Z,73.66
2022-11-18T15:15:43.432Z,73.48
2022-11-18T15:18:48.118Z,73.71
2022-11-18T15:21:50.829Z,73.99
2022-11-18T15:24:52.914Z,74.36
2022-11-18T15:27:55.000Z,74.59
2022-11-18T15:30:57.079Z,74.73
2022-11-18T15:34:05.046Z,75.64
2022-11-18T15:37:12.313Z,75.89
2022-11-18T15:40:14.404Z,76.27
2022-11-18T15:43:17.899Z,76.08
2022-11-18T15:46:21.228Z,75.96
2022-11-18T15:49:23.411Z,75.84
2022-11-18T15:52:27.179Z,75.24
2022-11-18T15:55:29.209Z,74.81
2022-11-18T15:58:35.667Z,75.56
2022-11-18T16:01:40.364Z,75.54
2022-11-18T16:04:42.554Z,76.00
2022-11-18T16:07:44.941Z,75.10
2022-11-18T16:11:05.589Z,75.15
2022-11-18T16:14:10.399Z,72.86
2022-11-18T16:17:12.417Z,71.67
2022-11-18T16:20:14.598Z,71.51
2022-11-18T16:23:16.868Z,72.05
2022-11-18T16:26:18.926Z,72.72
2022-11-18T16:29:23.095Z,73.59
2022-11-18T16:32:25.891Z,73.01
2022-11-18T16:35:28.151Z,72.66
2022-11-18T16:38:30.169Z,71.42
2022-11-18T16:41:32.291Z,71.63
2022-11-18T16:44:34.963Z,71.15
2022-11-18T16:47:38.448Z,70.30
2022-11-18T16:50:40.706Z,69.18
2022-11-18T16:53:42.756Z,69.66
2022-11-18T16:56:45.256Z,69.38
2022-11-18T16:59:47.377Z,68.66
2022-11-18T17:02:49.464Z,70.15
2022-11-18T17:05:51.502Z,69.33
2022-11-18T17:08:53.582Z,69.49
2022-11-18T17:11:55.936Z,70.49
2022-11-18T17:14:57.962Z,70.55
2022-11-18T17:18:00.015Z,70.87
2022-11-18T17:21:06.794Z,70.13
2022-11-18T17:24:09.214Z,69.07
2022-11-18T17:27:11.245Z,68.69
2022-11-18T17:30:14.218Z,69.54
2022-11-18T17:33:16.245Z,70.19
2022-11-18T17:36:20.452Z,70.51
2022-11-18T17:39:22.510Z,70.10
2022-11-18T17:42:25.815Z,70.84
2022-11-18T17:45:27.886Z,70.95
2022-11-18T17:48:30.516Z,70.12
2022-11-18T17:51:32.652Z,69.62
2022-11-18T17:54:34.737Z,69.84
2022-11-18T17:57:36.773Z,69.76
2022-11-18T18:00:39.249Z,70.25
2022-11-18T18:03:41.517Z,71.18
2022-11-18T18:06:43.554Z,71.35
2022-11-18T18:09:45.614Z,71.13
2022-11-18T18:13:06.407Z,70.94
2022-11-18T18:16:08.484Z,71.06
2022-11-18T18:19:12.136Z,71.16
2022-11-18T18:22:14.182Z,70.63
2022-11-18T18:25:16.424Z,70.04
2022-11-18T18:28:18.518Z,69.83
2022-11-18T18:31:20.617Z,70.77
2022-11-18T18:34:22.767Z,70.84
2022-11-18T18:37:24.845Z,69.97
2022-11-18T18:40:26.892Z,69.97
2022-11-18T18:43:29.037Z,69.63
2022-11-18T18:46:33.794Z,70.36
2022-11-18T18:49:35.895Z,71.77
2022-11-18T18:52:37.985Z,71.97
2022-11-18T18:55:44.695Z,73.16
2022-11-18T18:58:47.341Z,73.21
2022-11-18T19:01:49.474Z,73.14
2022-11-18T19:04:52.858Z,73.53
2022-11-18T19:07:54.966Z,73.01
2022-11-18T19:10:57.058Z,71.53
2022-11-18T19:14:07.028Z,71.60
2022-11-18T19:17:12.158Z,70.35
2022-11-18T19:20:33.382Z,72.49
2022-11-18T19:23:35.451Z,70.95
2022-11-18T19:26:37.519Z,71.94
2022-11-18T19:29:39.590Z,71.68
2022-11-18T19:32:42.340Z,72.19
2022-11-18T19:35:44.366Z,71.46
2022-11-18T19:38:49.417Z,71.77
2022-11-18T19:41:51.446Z,72.06
2022-11-18T19:44:53.461Z,72.29
2022-11-18T19:47:55.618Z,71.49
2022-11-18T19:51:12.345Z,72.20
2022-11-18T19:54:14.384Z,72.06
2022-11-18T19:57:16.518Z,71.52
2022-11-18T20:00:19.280Z,72.65
2022-11-18T20:03:21.365Z,72.66
2022-11-18T20:06:24.383Z,72.30
2022-11-18T20:09:26.521Z,72.40
2022-11-18T20:12:29.727Z,72.24
2022-11-18T20:15:31.783Z,70.65
2022-11-18T20:18:33.888Z,72.22
2022-11-18T20:21:35.976Z,70.95
2022-11-18T20:24:38.038Z,70.94
2022-11-18T20:27:40.097Z,71.31
2022-11-18T20:30:42.334Z,72.07
2022-11-18T20:33:49.346Z,73.31
2022-11-18T20:36:54.530Z,72.28
2022-11-18T20:39:56.697Z,72.25
2022-11-18T20:43:14.283Z,71.60
2022-11-18T20:46:20.623Z,71.96
2022-11-18T20:49:23.188Z,71.96
2022-11-18T20:52:25.242Z,71.18
2022-11-18T20:55:27.350Z,71.13
2022-11-18T20:58:29.446Z,71.45
2022-11-18T21:01:33.026Z,71.74
2022-11-18T21:04:35.138Z,71.82
2022-11-18T21:07:37.271Z,71.12
2022-11-18T21:10:39.351Z,70.41
2022-11-18T21:14:00.448Z,70.88
2022-11-18T21:17:02.661Z,70.82
2022-11-18T21:20:25.719Z,71.26
2022-11-18T21:23:27.832Z,71.35
2022-11-18T21:26:31.653Z,71.44
2022-11-18T21:29:33.889Z,71.55
2022-11-18T21:32:35.925Z,71.17
2022-11-18T21:35:38.072Z,71.28
2022-11-18T21:38:40.157Z,70.87
2022-11-18T21:41:42.234Z,72.26
2022-11-18T21:44:44.250Z,72.68
2022-11-18T21:47:46.422Z,72.83
2022-11-18T21:50:48.446Z,73.16
2022-11-18T21:53:50.511Z,73.26
2022-11-18T21:56:53.705Z,72.84
2022-11-18T21:59:55.889Z,73.42
2022-11-18T22:02:57.934Z,74.86
2022-11-18T22:06:02.312Z,75.25
2022-11-18T22:09:06.193Z,76.22
2022-11-18T22:12:08.375Z,76.44
2022-11-18T22:15:11.266Z,77.45
2022-11-18T22:18:13.348Z,76.06
2022-11-18T22:21:17.862Z,76.16
2022-11-18T22:24:19.934Z,76.98
2022-11-18T22:27:21.982Z,77.32
2022-11-18T22:30:24.019Z,77.40
2022-11-18T22:33:26.058Z,76.93
2022-11-18T22:36:28.222Z,77.96
2022-11-18T22:39:30.290Z,78.44
2022-11-18T22:42:47.214Z,77.90
2022-11-18T22:45:49.244Z,77.81
2022-11-18T22:48:51.324Z,78.77
2022-11-18T22:51:53.373Z,78.23
2022-11-18T22:54:55.423Z,78.69
2022-11-18T22:57:57.457Z,79.34
2022-11-18T23:01:09.849Z,78.91
2022-11-18T23:04:11.912Z,79.53
2022-11-18T23:07:13.964Z,80.13
2022-11-18T23:10:16.075Z,80.28
2022-11-18T23:13:36.663Z,79.98
2022-11-18T23:16:41.431Z,80.50
2022-11-18T23:19:43.990Z,81.23
2022-11-18T23:22:46.187Z,80.79
2022-11-18T23:25:48.281Z,80.22
2022-11-18T23:28:50.518Z,80.63
2022-11-18T23:31:53.898Z,80.26
2022-11-18T23:34:55.965Z,79.87
2022-11-18T23:37:57.989Z,81.38
2022-11-18T23:41:06.234Z,83.57
2022-11-18T23:44:08.296Z,82.12
2022-11-18T23:47:10.338Z,82.52
2022-11-18T23:50:12.388Z,82.75
2022-11-18T23:53:14.443Z,85.08
2022-11-18T23:56:18.029Z,82.88
2022-11-18T23:59:20.244Z,83.33
